Portada
METAR-TAF:

METAR-TAF

Aeroports :

Aeroport de Barcelona-El Prat

Barcelona, Espanya

latitud: 41-17N, longitud: 002-04E, altitud: 4 m

Observació

L'informe es va fer fa 14 hores i 51 minuts, a les 05:00 UTC
Vent 10 kt del Nord-Oest
Temperatura 23°C
Humitat 73%
Pressió 1016 hPa
Visibilitat 10 km o més
sense núvols per sota de 1500 mi sense presència de cumulonimbus.

METAR: LEBL 210500Z 31010KT CAVOK 23/18 Q1016 NOSIG

Hora: 21:51 (19:51 UTC)

Pronòstic

L'informe es va fer fa 14 hores i 51 minuts, a les 05:00 UTC
Pronòstic vàlid del 21 a les 06 UTC al 22 a les 06 UTC
Vent 6 kt del Nord-Oest
Visibilitat 10 km o més
Escasses núvols a una alçada de 3000 ft
Evolucionant progressivament
l' 21 a les 08 UTC al 21 a les 10 UTC
Vent 10 kt del Sud/Sud-Oest
Evolucionant progressivament
l' 21 a les 18 UTC al 21 a les 21 UTC
Vent 3 kt amb direcció variable

TAF: LEBL 210500Z 2106/2206 32006KT 9999 FEW030 TX32/2112Z TN23/2206Z BECMG 2108/2110 20010KT BECMG 2118/2121 VRB03KT

Observacions i pronòstics meteorològics de més de 4000 aeroports (METAR i TAF).

Les estacions disponibles són els punts grocs i vermells al mapa.

Posi el ratolí al punt desitjat per veure el nom de l'estació.

Feu clic per veure les observacions i els pronòstics meteorològics.

Per canviar el mapa: feu clic els botons verds amb una creu de color negre per apropar; al botó verd amb un guió per allunyar la imatge; o en les fletxes verdes per a mapes adjacents.


METAR-TAF: